createdAt,value
2022-11-05T00:00:06.294Z,9.10
2022-11-05T00:02:27.224Z,9.10
2022-11-05T00:04:48.445Z,9.10
2022-11-05T00:07:10.198Z,9.00
2022-11-05T00:09:31.969Z,9.00
2022-11-05T00:11:53.145Z,9.00
2022-11-05T00:14:13.621Z,8.90
2022-11-05T00:16:34.332Z,9.00
2022-11-05T00:18:36.800Z,9.00
2022-11-05T00:20:39.427Z,9.00
2022-11-05T00:22:59.863Z,8.90
2022-11-05T00:25:15.997Z,8.90
2022-11-05T00:27:18.553Z,8.90
2022-11-05T00:29:21.386Z,8.90
2022-11-05T00:31:24.115Z,8.80
2022-11-05T00:35:43.551Z,8.70
2022-11-05T00:37:50.079Z,8.70
2022-11-05T00:39:50.558Z,8.70
2022-11-05T00:42:12.556Z,8.70
2022-11-05T00:44:32.825Z,8.70
2022-11-05T00:46:35.313Z,8.60
2022-11-05T00:48:55.713Z,8.50
2022-11-05T00:50:58.233Z,8.60
2022-11-05T00:53:00.864Z,8.60
2022-11-05T00:55:03.672Z,8.50
2022-11-05T00:57:06.208Z,8.50
2022-11-05T00:59:08.717Z,8.50
2022-11-05T01:01:11.386Z,8.40
2022-11-05T01:03:15.178Z,8.40
2022-11-05T01:05:43.469Z,8.40
2022-11-05T01:07:49.566Z,8.40
2022-11-05T01:09:52.228Z,8.40
2022-11-05T01:11:55.218Z,8.40
2022-11-05T01:13:57.715Z,8.30
2022-11-05T01:16:02.179Z,8.30
2022-11-05T01:18:05.280Z,8.30
2022-11-05T01:20:08.492Z,8.30
2022-11-05T01:22:10.957Z,8.30
2022-11-05T01:24:13.473Z,8.30
2022-11-05T01:26:15.945Z,8.30
2022-11-05T01:28:18.510Z,8.20
2022-11-05T01:30:21.475Z,8.20
2022-11-05T01:32:23.977Z,8.30
2022-11-05T01:34:26.462Z,8.30
2022-11-05T01:36:28.960Z,8.30
2022-11-05T01:38:31.573Z,8.30
2022-11-05T01:40:34.114Z,8.20
2022-11-05T01:42:36.568Z,8.20
2022-11-05T01:45:07.071Z,8.20
2022-11-05T01:47:11.498Z,8.10
2022-11-05T01:49:15.820Z,8.10
2022-11-05T01:51:19.201Z,8.00
2022-11-05T01:53:24.247Z,7.90
2022-11-05T01:55:27.821Z,7.90
2022-11-05T01:57:31.226Z,7.80
2022-11-05T02:01:50.289Z,7.80
2022-11-05T02:03:54.614Z,7.80
2022-11-05T02:05:57.607Z,7.80
2022-11-05T02:08:00.201Z,7.70
2022-11-05T02:10:04.496Z,7.70
2022-11-05T02:12:07.394Z,7.70
2022-11-05T02:14:09.876Z,7.70
2022-11-05T02:16:14.558Z,7.70
2022-11-05T02:18:19.989Z,7.60
2022-11-05T02:20:26.346Z,7.60
2022-11-05T02:22:38.067Z,7.60
2022-11-05T02:24:52.676Z,7.60
2022-11-05T02:27:03.289Z,7.50
2022-11-05T02:29:37.148Z,7.50
2022-11-05T02:33:57.546Z,7.50
2022-11-05T02:36:07.261Z,7.50
2022-11-05T02:38:11.565Z,7.50
2022-11-05T02:40:16.403Z,7.50
2022-11-05T02:42:21.572Z,7.50
2022-11-05T02:44:26.410Z,7.40
2022-11-05T02:46:31.640Z,7.50
2022-11-05T02:48:36.813Z,7.40
2022-11-05T02:50:41.233Z,7.40
2022-11-05T02:52:45.569Z,7.40
2022-11-05T02:54:49.905Z,7.40
2022-11-05T02:56:53.393Z,7.40
2022-11-05T02:58:55.889Z,7.40
2022-11-05T03:00:59.809Z,7.40
2022-11-05T03:03:03.595Z,7.40
2022-11-05T03:05:06.653Z,7.40
2022-11-05T03:07:19.505Z,7.40
2022-11-05T03:09:50.035Z,7.40
2022-11-05T03:11:55.856Z,7.40
2022-11-05T03:13:59.598Z,7.40
2022-11-05T03:16:04.184Z,7.40
2022-11-05T03:18:08.897Z,7.40
2022-11-05T03:20:15.181Z,7.40
2022-11-05T03:22:19.462Z,7.40
2022-11-05T03:24:23.578Z,7.40
2022-11-05T03:26:28.036Z,7.40
2022-11-05T03:28:32.309Z,7.40
2022-11-05T03:30:36.297Z,7.30
2022-11-05T03:34:58.453Z,7.30
2022-11-05T03:37:01.623Z,7.30
2022-11-05T03:39:06.009Z,7.20
2022-11-05T03:41:10.327Z,7.30
2022-11-05T03:43:13.876Z,7.20
2022-11-05T03:45:18.773Z,7.20
2022-11-05T03:47:23.453Z,7.20
2022-11-05T03:49:27.760Z,7.20
2022-11-05T03:51:33.462Z,7.20
2022-11-05T03:53:37.667Z,7.30
2022-11-05T03:57:58.301Z,7.30
2022-11-05T04:00:01.098Z,7.30
2022-11-05T04:02:03.880Z,7.30
2022-11-05T04:04:06.879Z,7.20
2022-11-05T04:06:27.647Z,7.20
2022-11-05T04:08:48.378Z,7.30
2022-11-05T04:11:08.906Z,7.30
2022-11-05T04:13:27.147Z,7.20
2022-11-05T04:15:29.778Z,7.10
2022-11-05T04:17:32.270Z,7.20
2022-11-05T04:19:52.640Z,7.20
2022-11-05T04:22:17.581Z,7.20
2022-11-05T04:26:39.616Z,7.20
2022-11-05T04:29:08.052Z,7.20
2022-11-05T04:31:10.562Z,7.20
2022-11-05T04:33:14.739Z,7.20
2022-11-05T04:35:17.361Z,7.20
2022-11-05T04:37:19.897Z,7.20
2022-11-05T04:39:22.414Z,7.20
2022-11-05T04:41:24.872Z,7.10
2022-11-05T04:43:27.409Z,7.10
2022-11-05T04:45:31.304Z,7.10
2022-11-05T04:47:33.852Z,7.10
2022-11-05T04:49:36.356Z,7.10
2022-11-05T04:51:40.111Z,7.10
2022-11-05T04:53:44.645Z,7.00
2022-11-05T04:55:47.651Z,7.00
2022-11-05T04:57:50.995Z,7.00
2022-11-05T04:59:54.981Z,7.00
2022-11-05T05:01:58.201Z,7.00
2022-11-05T05:04:01.058Z,7.00
2022-11-05T05:06:04.307Z,7.00
2022-11-05T05:08:06.971Z,7.00
2022-11-05T05:10:09.709Z,6.90
2022-11-05T05:12:12.303Z,6.80
2022-11-05T05:14:14.781Z,6.80
2022-11-05T05:16:19.344Z,6.70
2022-11-05T05:18:21.861Z,6.70
2022-11-05T05:20:42.285Z,6.70
2022-11-05T05:22:46.600Z,6.60
2022-11-05T05:24:52.807Z,6.60
2022-11-05T05:26:53.500Z,6.60
2022-11-05T05:28:55.974Z,6.50
2022-11-05T05:30:59.551Z,6.50
2022-11-05T05:33:03.351Z,6.50
2022-11-05T05:35:06.613Z,6.40
2022-11-05T05:37:09.217Z,6.40
2022-11-05T05:39:13.049Z,6.40
2022-11-05T05:41:15.577Z,6.30
2022-11-05T05:43:18.033Z,6.30
2022-11-05T05:45:20.553Z,6.30
2022-11-05T05:47:23.035Z,6.30
2022-11-05T05:49:25.534Z,6.20
2022-11-05T05:51:28.032Z,6.10
2022-11-05T05:53:30.905Z,6.00
2022-11-05T05:55:33.401Z,6.10
2022-11-05T05:57:35.911Z,6.00
2022-11-05T05:59:38.426Z,5.90
2022-11-05T06:01:41.071Z,5.80
2022-11-05T06:03:43.677Z,5.80
2022-11-05T06:08:02.161Z,5.80
2022-11-05T06:10:05.306Z,5.70
2022-11-05T06:12:08.048Z,5.70
2022-11-05T06:14:11.106Z,5.70
2022-11-05T06:16:13.593Z,5.70
2022-11-05T06:18:16.126Z,5.70
2022-11-05T06:20:18.611Z,5.70
2022-11-05T06:22:21.084Z,5.60
2022-11-05T06:24:23.604Z,5.60
2022-11-05T06:26:26.174Z,5.50
2022-11-05T06:28:29.234Z,5.50
2022-11-05T06:30:31.732Z,5.40
2022-11-05T06:32:34.254Z,5.40
2022-11-05T06:34:36.716Z,5.50
2022-11-05T06:36:39.819Z,5.50
2022-11-05T06:38:42.281Z,5.50
2022-11-05T06:40:44.761Z,5.60
2022-11-05T06:42:50.279Z,5.60
2022-11-05T06:44:53.373Z,5.60
2022-11-05T06:46:55.861Z,5.60
2022-11-05T06:48:58.369Z,5.60
2022-11-05T06:51:00.934Z,5.60
2022-11-05T06:53:04.156Z,5.60
2022-11-05T06:55:07.522Z,5.60
2022-11-05T06:57:10.694Z,5.60
2022-11-05T06:59:13.172Z,5.60
2022-11-05T07:01:15.758Z,5.60
2022-11-05T07:03:18.280Z,5.60
2022-11-05T07:05:20.769Z,5.50
2022-11-05T07:07:23.251Z,5.60
2022-11-05T07:09:26.461Z,5.60
2022-11-05T07:11:28.953Z,5.70
2022-11-05T07:13:31.617Z,5.70
2022-11-05T07:15:34.127Z,5.70
2022-11-05T07:17:36.898Z,5.80
2022-11-05T07:19:39.412Z,5.70
2022-11-05T07:21:41.912Z,5.70
2022-11-05T07:23:44.517Z,5.70
2022-11-05T07:25:47.050Z,5.70
2022-11-05T07:27:49.517Z,5.80
2022-11-05T07:29:51.993Z,5.90
2022-11-05T07:31:54.596Z,5.90
2022-11-05T07:33:58.517Z,6.00
2022-11-05T07:36:01.037Z,6.00
2022-11-05T07:38:03.526Z,6.20
2022-11-05T07:40:07.248Z,6.30
2022-11-05T07:42:11.974Z,6.70
2022-11-05T07:44:16.953Z,6.80
2022-11-05T07:46:19.522Z,7.00
2022-11-05T07:48:22.085Z,7.10
2022-11-05T07:50:25.566Z,7.20
2022-11-05T07:52:28.019Z,7.50
2022-11-05T07:54:30.652Z,7.70
2022-11-05T07:56:33.170Z,7.90
2022-11-05T07:58:36.707Z,8.10
2022-11-05T08:00:39.395Z,8.40
2022-11-05T08:02:42.499Z,8.50
2022-11-05T08:04:45.252Z,8.70
2022-11-05T08:06:47.765Z,8.90
2022-11-05T08:08:50.277Z,9.00
2022-11-05T08:13:08.906Z,9.30
2022-11-05T08:15:11.543Z,9.30
2022-11-05T08:17:18.281Z,9.30
2022-11-05T08:19:18.339Z,9.40
2022-11-05T08:21:20.830Z,9.40
2022-11-05T08:23:23.313Z,9.40
2022-11-05T08:25:25.890Z,9.40
2022-11-05T08:27:28.396Z,9.30
2022-11-05T08:29:30.881Z,9.40
2022-11-05T08:31:35.158Z,9.30
2022-11-05T08:33:37.672Z,9.40
2022-11-05T08:35:40.447Z,9.20
2022-11-05T08:37:42.920Z,9.20
2022-11-05T08:39:45.442Z,9.20
2022-11-05T08:41:48.506Z,9.20
2022-11-05T08:43:50.974Z,9.10
2022-11-05T08:45:54.444Z,9.10
2022-11-05T08:48:00.328Z,9.20
2022-11-05T08:50:02.985Z,9.20
2022-11-05T08:52:05.480Z,9.20
2022-11-05T08:54:08.133Z,9.30
2022-11-05T08:56:10.606Z,9.30
2022-11-05T08:58:14.516Z,9.30
2022-11-05T09:00:17.618Z,9.30
2022-11-05T09:02:20.250Z,9.30
2022-11-05T09:04:22.965Z,9.30
2022-11-05T09:06:25.634Z,9.40
2022-11-05T09:08:28.200Z,9.40
2022-11-05T09:10:30.792Z,9.50
2022-11-05T09:12:33.685Z,9.50
2022-11-05T09:14:36.235Z,9.60
2022-11-05T09:16:38.840Z,9.60
2022-11-05T09:18:41.824Z,9.70
2022-11-05T09:20:44.399Z,9.80
2022-11-05T09:22:47.056Z,9.80
2022-11-05T09:24:49.553Z,9.90
2022-11-05T09:26:52.054Z,10.00
2022-11-05T09:28:54.933Z,10.10
2022-11-05T09:30:57.437Z,10.20
2022-11-05T09:32:59.911Z,10.20
2022-11-05T09:35:02.428Z,10.30
2022-11-05T09:39:20.895Z,10.40
2022-11-05T09:41:25.566Z,10.50
2022-11-05T09:43:31.906Z,10.60
2022-11-05T09:45:34.988Z,10.70
2022-11-05T09:47:39.259Z,10.60
2022-11-05T09:49:43.580Z,10.70
2022-11-05T09:51:46.093Z,10.70
2022-11-05T09:53:49.209Z,10.90
2022-11-05T09:55:53.297Z,11.00
2022-11-05T09:57:57.051Z,10.90
2022-11-05T10:00:01.402Z,11.10
2022-11-05T10:04:21.042Z,11.30
2022-11-05T10:06:24.968Z,11.50
2022-11-05T10:08:29.169Z,11.40
2022-11-05T10:10:40.530Z,11.50
2022-11-05T10:12:41.839Z,11.60
2022-11-05T10:14:47.711Z,12.00
2022-11-05T10:16:52.634Z,12.10
2022-11-05T10:18:57.808Z,12.20
2022-11-05T10:21:00.945Z,12.00
2022-11-05T10:23:08.372Z,12.00
2022-11-05T10:27:33.388Z,12.00
2022-11-05T10:29:36.081Z,12.00
2022-11-05T10:31:38.701Z,11.90
2022-11-05T10:33:42.627Z,11.90
2022-11-05T10:35:47.878Z,11.70
2022-11-05T10:37:52.835Z,11.60
2022-11-05T10:39:55.427Z,11.50
2022-11-05T10:42:13.289Z,11.50
2022-11-05T10:44:19.913Z,11.20
2022-11-05T10:46:26.948Z,11.30
2022-11-05T10:48:52.000Z,11.20
2022-11-05T10:50:54.513Z,11.20
2022-11-05T10:53:00.432Z,11.40
2022-11-05T10:55:06.328Z,11.50
2022-11-05T10:57:28.014Z,11.50
2022-11-05T10:59:34.971Z,11.60
2022-11-05T11:01:43.987Z,11.60
2022-11-05T11:03:54.097Z,11.60
2022-11-05T11:05:59.442Z,11.70
2022-11-05T11:08:14.240Z,11.70
2022-11-05T11:10:21.321Z,12.00
2022-11-05T11:12:27.186Z,12.10
2022-11-05T11:14:30.620Z,12.10
2022-11-05T11:16:37.952Z,12.20
2022-11-05T11:18:43.084Z,12.30
2022-11-05T11:20:45.840Z,12.40
2022-11-05T11:23:04.985Z,12.50
2022-11-05T11:25:16.713Z,12.40
2022-11-05T11:27:21.039Z,12.30
2022-11-05T11:29:25.458Z,12.20
2022-11-05T11:31:29.398Z,12.20
2022-11-05T11:33:32.589Z,12.10
2022-11-05T11:35:36.984Z,12.00
2022-11-05T11:37:41.542Z,12.00
2022-11-05T11:39:45.846Z,12.30
2022-11-05T11:41:55.695Z,12.40
2022-11-05T11:43:59.989Z,12.50
2022-11-05T11:46:06.978Z,12.60
2022-11-05T11:48:11.557Z,12.60
2022-11-05T11:50:33.633Z,12.50
2022-11-05T11:52:36.849Z,12.50
2022-11-05T11:54:39.529Z,12.60
2022-11-05T11:56:46.284Z,12.50
2022-11-05T11:58:49.891Z,12.60
2022-11-05T12:00:54.618Z,12.50
2022-11-05T12:03:03.366Z,12.50
2022-11-05T12:05:09.910Z,12.40
2022-11-05T12:07:19.925Z,12.30
2022-11-05T12:11:42.430Z,12.30
2022-11-05T12:14:13.260Z,12.30
2022-11-05T12:16:18.057Z,12.30
2022-11-05T12:18:24.184Z,12.30
2022-11-05T12:20:33.836Z,12.30
2022-11-05T12:22:38.970Z,12.40
2022-11-05T12:24:49.140Z,12.50
2022-11-05T12:26:54.875Z,12.60
2022-11-05T12:29:19.093Z,12.50
2022-11-05T12:31:08.220Z,12.60
2022-11-05T12:33:16.462Z,12.50
2022-11-05T12:37:43.713Z,12.60
2022-11-05T12:40:00.102Z,12.70
2022-11-05T12:42:04.485Z,12.80
2022-11-05T12:44:19.208Z,12.90
2022-11-05T12:46:26.219Z,12.90
2022-11-05T12:48:37.071Z,12.90
2022-11-05T12:50:39.472Z,12.90
2022-11-05T12:52:55.574Z,12.80
2022-11-05T12:55:03.868Z,12.80
2022-11-05T12:57:09.373Z,12.60
2022-11-05T12:59:14.770Z,12.60
2022-11-05T13:01:19.350Z,12.60
2022-11-05T13:03:25.765Z,12.50
2022-11-05T13:05:29.832Z,12.40
2022-11-05T13:07:33.659Z,12.30
2022-11-05T13:09:37.974Z,12.30
2022-11-05T13:11:42.300Z,12.20
2022-11-05T13:13:46.613Z,12.20
2022-11-05T13:15:51.704Z,12.20
2022-11-05T13:17:56.015Z,12.20
2022-11-05T13:20:00.909Z,12.10
2022-11-05T13:22:07.861Z,12.20
2022-11-05T13:24:13.480Z,12.20
2022-11-05T13:26:19.889Z,12.20
2022-11-05T13:28:24.218Z,12.10
2022-11-05T13:30:28.484Z,12.00
2022-11-05T13:32:32.684Z,12.00
2022-11-05T13:34:37.751Z,11.90
2022-11-05T13:37:02.022Z,11.80
2022-11-05T13:39:08.592Z,11.80
2022-11-05T13:41:14.769Z,11.80
2022-11-05T13:43:20.728Z,11.80
2022-11-05T13:45:31.085Z,11.80
2022-11-05T13:47:45.065Z,11.80
2022-11-05T13:49:54.925Z,11.80
2022-11-05T13:51:59.344Z,11.80
2022-11-05T13:54:16.789Z,11.90
2022-11-05T13:56:38.549Z,11.80
2022-11-05T13:58:48.851Z,11.80
2022-11-05T14:00:57.449Z,11.90
2022-11-05T14:03:01.361Z,11.90
2022-11-05T14:05:05.208Z,11.90
2022-11-05T14:07:10.164Z,11.90
2022-11-05T14:09:14.564Z,12.00
2022-11-05T14:11:21.025Z,12.00
2022-11-05T14:13:24.908Z,11.90
2022-11-05T14:15:28.140Z,11.80
2022-11-05T14:17:34.537Z,11.70
2022-11-05T14:19:38.838Z,11.80
2022-11-05T14:21:48.566Z,11.80
2022-11-05T14:23:51.521Z,11.80
2022-11-05T14:25:55.220Z,11.80
2022-11-05T14:27:58.035Z,11.70
2022-11-05T14:30:00.515Z,11.70
2022-11-05T14:32:11.275Z,11.70
2022-11-05T14:34:23.273Z,11.70
2022-11-05T14:36:36.396Z,11.70
2022-11-05T14:38:40.854Z,11.60
2022-11-05T14:40:43.573Z,11.60
2022-11-05T14:42:49.341Z,11.50
2022-11-05T14:44:59.408Z,11.40
2022-11-05T14:47:03.383Z,11.30
2022-11-05T14:49:09.651Z,11.30
2022-11-05T14:53:36.933Z,11.10
2022-11-05T14:55:41.270Z,11.20
2022-11-05T15:00:40.039Z,11.10
2022-11-05T15:02:44.442Z,11.10
2022-11-05T15:04:47.483Z,11.00
2022-11-05T15:07:09.168Z,11.10
2022-11-05T15:09:20.848Z,11.10
2022-11-05T15:11:25.497Z,11.00
2022-11-05T15:13:30.815Z,11.00
2022-11-05T15:15:35.773Z,10.90
2022-11-05T15:17:39.286Z,10.80
2022-11-05T15:19:42.413Z,10.80
2022-11-05T15:21:44.905Z,10.80
2022-11-05T15:23:48.841Z,10.70
2022-11-05T15:25:53.694Z,10.80
2022-11-05T15:28:00.121Z,10.80
2022-11-05T15:30:04.993Z,10.70
2022-11-05T15:32:14.461Z,10.70
2022-11-05T15:34:18.481Z,10.60
2022-11-05T15:36:23.444Z,10.70
2022-11-05T15:38:30.286Z,10.60
2022-11-05T15:40:33.257Z,10.60
2022-11-05T15:42:35.828Z,10.50
2022-11-05T15:44:39.228Z,10.50
2022-11-05T15:46:41.721Z,10.50
2022-11-05T15:48:46.114Z,10.50
2022-11-05T15:50:48.617Z,10.50
2022-11-05T15:52:52.692Z,10.40
2022-11-05T15:55:08.500Z,10.40
2022-11-05T15:57:19.718Z,10.40
2022-11-05T15:59:22.904Z,10.40
2022-11-05T16:01:27.763Z,10.40
2022-11-05T16:03:31.977Z,10.40
2022-11-05T16:05:36.102Z,10.40
2022-11-05T16:07:42.788Z,10.40
2022-11-05T16:09:51.842Z,10.30
2022-11-05T16:14:14.525Z,10.40
2022-11-05T16:16:25.133Z,10.30
2022-11-05T16:18:31.136Z,10.30
2022-11-05T16:20:34.383Z,10.30
2022-11-05T16:22:46.453Z,10.30
2022-11-05T16:24:49.234Z,10.30
2022-11-05T16:27:03.421Z,10.30
2022-11-05T16:29:00.704Z,10.30
2022-11-05T16:31:04.355Z,10.30
2022-11-05T16:33:07.309Z,10.20
2022-11-05T16:35:17.823Z,10.20
2022-11-05T16:37:22.144Z,10.20
2022-11-05T16:39:24.644Z,10.20
2022-11-05T16:41:27.204Z,10.30
2022-11-05T16:43:29.825Z,10.30
2022-11-05T16:45:40.976Z,10.20
2022-11-05T16:47:38.668Z,10.10
2022-11-05T16:49:41.175Z,10.10
2022-11-05T16:51:43.762Z,10.10
2022-11-05T16:53:47.518Z,10.10
2022-11-05T16:55:50.004Z,10.10
2022-11-05T16:57:53.313Z,10.10
2022-11-05T16:59:56.452Z,10.00
2022-11-05T17:01:59.246Z,10.00
2022-11-05T17:04:02.759Z,10.00
2022-11-05T17:06:06.052Z,10.00
2022-11-05T17:08:08.734Z,10.00
2022-11-05T17:10:11.339Z,10.00
2022-11-05T17:12:14.323Z,10.00
2022-11-05T17:14:16.860Z,10.00
2022-11-05T17:16:19.462Z,10.00
2022-11-05T17:18:22.195Z,10.00
2022-11-05T17:20:28.372Z,10.00
2022-11-05T17:22:30.846Z,10.00
2022-11-05T17:24:33.375Z,10.00
2022-11-05T17:26:35.843Z,10.00
2022-11-05T17:28:38.755Z,10.00
2022-11-05T17:30:42.053Z,10.00
2022-11-05T17:32:44.827Z,10.00
2022-11-05T17:34:47.492Z,9.90
2022-11-05T17:36:49.977Z,10.00
2022-11-05T17:38:52.777Z,10.00
2022-11-05T17:40:55.283Z,10.00
2022-11-05T17:42:58.049Z,9.90
2022-11-05T17:45:01.451Z,9.90
2022-11-05T17:47:04.057Z,9.90
2022-11-05T17:49:06.670Z,9.90
2022-11-05T17:51:09.474Z,9.80
2022-11-05T17:53:12.499Z,9.80
2022-11-05T17:55:18.549Z,9.80
2022-11-05T17:57:21.038Z,9.90
2022-11-05T17:59:23.574Z,9.80
2022-11-05T18:01:27.262Z,9.80
2022-11-05T18:03:29.841Z,9.80
2022-11-05T18:05:33.721Z,9.80
2022-11-05T18:07:36.498Z,9.80
2022-11-05T18:09:39.006Z,9.80
2022-11-05T18:11:41.757Z,9.80
2022-11-05T18:13:44.279Z,9.80
2022-11-05T18:15:46.776Z,9.80
2022-11-05T18:17:49.303Z,9.80
2022-11-05T18:19:51.762Z,9.90
2022-11-05T18:21:54.305Z,9.80
2022-11-05T18:23:56.804Z,9.80
2022-11-05T18:25:59.292Z,9.90
2022-11-05T18:28:01.955Z,9.90
2022-11-05T18:30:04.971Z,9.90
2022-11-05T18:32:08.055Z,9.90
2022-11-05T18:34:10.861Z,9.90
2022-11-05T18:36:17.292Z,10.00
2022-11-05T18:38:19.779Z,9.90
2022-11-05T18:40:22.319Z,10.00
2022-11-05T18:42:25.179Z,10.00
2022-11-05T18:44:27.674Z,10.00
2022-11-05T18:46:56.414Z,10.00
2022-11-05T18:48:35.093Z,10.00
2022-11-05T18:50:39.435Z,10.00
2022-11-05T18:52:41.939Z,9.90
2022-11-05T18:54:44.405Z,9.90
2022-11-05T18:56:46.918Z,10.00
2022-11-05T18:58:49.852Z,10.00
2022-11-05T19:00:52.417Z,10.00
2022-11-05T19:02:55.144Z,9.90
2022-11-05T19:05:27.261Z,9.90
2022-11-05T19:07:05.144Z,9.90
2022-11-05T19:09:07.953Z,9.90
2022-11-05T19:11:11.459Z,10.00
2022-11-05T19:13:14.548Z,10.00
2022-11-05T19:15:17.050Z,10.00
2022-11-05T19:17:19.552Z,10.00
2022-11-05T19:19:22.640Z,10.00
2022-11-05T19:21:25.777Z,10.00
2022-11-05T19:23:28.273Z,10.00
2022-11-05T19:25:30.731Z,10.00
2022-11-05T19:27:34.529Z,9.90
2022-11-05T19:29:37.015Z,10.00
2022-11-05T19:31:39.528Z,10.00
2022-11-05T19:33:42.453Z,9.90
2022-11-05T19:35:44.963Z,9.90
2022-11-05T19:37:49.365Z,9.90
2022-11-05T19:39:51.952Z,10.00
2022-11-05T19:41:58.910Z,10.00
2022-11-05T19:44:00.587Z,9.90
2022-11-05T19:46:05.193Z,10.00
2022-11-05T19:48:08.003Z,10.00
2022-11-05T19:50:10.669Z,10.00
2022-11-05T19:52:13.372Z,10.00
2022-11-05T19:54:16.351Z,10.00
2022-11-05T19:56:20.679Z,10.00
2022-11-05T19:58:23.171Z,10.00
2022-11-05T20:00:25.632Z,10.00
2022-11-05T20:02:28.273Z,10.00
2022-11-05T20:04:31.080Z,10.00
2022-11-05T20:06:37.217Z,10.10
2022-11-05T20:08:59.750Z,10.00
2022-11-05T20:10:45.628Z,10.00
2022-11-05T20:12:48.136Z,10.00
2022-11-05T20:14:50.676Z,10.00
2022-11-05T20:16:53.590Z,10.00
2022-11-05T20:18:56.856Z,10.00
2022-11-05T20:21:03.775Z,10.00
2022-11-05T20:23:06.284Z,10.00
2022-11-05T20:25:09.449Z,10.00
2022-11-05T20:27:11.945Z,9.90
2022-11-05T20:29:14.420Z,10.00
2022-11-05T20:31:17.552Z,9.90
2022-11-05T20:33:20.396Z,9.80
2022-11-05T20:35:23.532Z,9.90
2022-11-05T20:37:26.092Z,9.90
2022-11-05T20:39:28.629Z,9.90
2022-11-05T20:41:31.673Z,9.90
2022-11-05T20:43:34.172Z,9.80
2022-11-05T20:45:37.981Z,9.90
2022-11-05T20:47:40.509Z,9.90
2022-11-05T20:49:43.065Z,9.80
2022-11-05T20:51:45.564Z,9.80
2022-11-05T20:53:48.681Z,9.80
2022-11-05T20:55:51.206Z,9.80
2022-11-05T20:57:53.701Z,9.80
2022-11-05T20:59:56.271Z,9.80
2022-11-05T21:01:58.872Z,9.80
2022-11-05T21:04:02.287Z,9.80
2022-11-05T21:06:05.824Z,9.80
2022-11-05T21:08:08.344Z,9.80
2022-11-05T21:10:11.392Z,9.80
2022-11-05T21:12:13.897Z,9.80
2022-11-05T21:14:16.529Z,9.80
2022-11-05T21:16:19.900Z,9.80
2022-11-05T21:18:23.920Z,9.80
2022-11-05T21:20:26.529Z,9.90
2022-11-05T21:22:29.020Z,9.90
2022-11-05T21:24:31.948Z,9.90
2022-11-05T21:26:34.436Z,9.90
2022-11-05T21:28:38.256Z,9.90
2022-11-05T21:30:41.772Z,9.90
2022-11-05T21:32:44.271Z,10.00
2022-11-05T21:34:46.778Z,9.90
2022-11-05T21:36:51.029Z,9.90
2022-11-05T21:38:53.500Z,9.90
2022-11-05T21:40:55.993Z,9.90
2022-11-05T21:42:58.526Z,9.90
2022-11-05T21:45:00.997Z,9.90
2022-11-05T21:47:03.951Z,9.90
2022-11-05T21:49:06.405Z,9.90
2022-11-05T21:51:27.921Z,9.80
2022-11-05T21:53:48.624Z,9.80
2022-11-05T21:56:09.181Z,9.80
2022-11-05T21:58:31.392Z,9.70
2022-11-05T22:00:33.934Z,9.70
2022-11-05T22:02:37.079Z,9.70
2022-11-05T22:04:40.956Z,9.70
2022-11-05T22:06:43.477Z,9.70
2022-11-05T22:08:45.957Z,9.60
2022-11-05T22:10:48.492Z,9.60
2022-11-05T22:12:50.997Z,9.60
2022-11-05T22:14:53.495Z,9.60
2022-11-05T22:16:56.294Z,9.60
2022-11-05T22:18:58.941Z,9.60
2022-11-05T22:21:01.440Z,9.60
2022-11-05T22:23:08.542Z,9.50
2022-11-05T22:25:08.814Z,9.60
2022-11-05T22:27:12.556Z,9.60
2022-11-05T22:29:15.467Z,9.50
2022-11-05T22:31:17.969Z,9.50
2022-11-05T22:33:20.475Z,9.50
2022-11-05T22:35:22.993Z,9.50
2022-11-05T22:37:25.485Z,9.50
2022-11-05T22:39:28.180Z,9.50
2022-11-05T22:41:31.027Z,9.40
2022-11-05T22:43:33.576Z,9.40
2022-11-05T22:45:36.084Z,9.40
2022-11-05T22:47:40.382Z,9.40
2022-11-05T22:49:42.880Z,9.40
2022-11-05T22:51:45.642Z,9.50
2022-11-05T22:53:48.738Z,9.40
2022-11-05T22:55:51.192Z,9.40
2022-11-05T22:57:53.676Z,9.40
2022-11-05T22:59:56.192Z,9.40
2022-11-05T23:01:58.758Z,9.40
2022-11-05T23:04:01.475Z,9.40
2022-11-05T23:06:05.060Z,9.40
2022-11-05T23:08:25.616Z,9.40
2022-11-05T23:10:46.221Z,9.40
2022-11-05T23:12:48.691Z,9.30
2022-11-05T23:14:51.591Z,9.30
2022-11-05T23:17:11.892Z,9.30
2022-11-05T23:19:32.448Z,9.20
2022-11-05T23:21:53.148Z,9.30
2022-11-05T23:24:04.774Z,9.20
2022-11-05T23:26:27.323Z,9.10
2022-11-05T23:28:29.841Z,9.20
2022-11-05T23:30:32.529Z,9.10
2022-11-05T23:32:35.350Z,9.10
2022-11-05T23:34:38.120Z,9.20
2022-11-05T23:36:58.806Z,9.10
2022-11-05T23:39:01.379Z,9.00
2022-11-05T23:41:22.043Z,9.10
2022-11-05T23:43:47.063Z,9.00
2022-11-05T23:48:16.511Z,8.90
2022-11-05T23:50:19.249Z,8.90
2022-11-05T23:52:21.765Z,8.80
2022-11-05T23:54:24.412Z,8.90
2022-11-05T23:56:26.897Z,8.80
2022-11-05T23:58:29.418Z,8.80
